createdAt,value
2023-03-01T00:01:49.163Z,10.50
2023-03-01T00:04:18.812Z,6.80
2023-03-01T00:09:15.462Z,10.23
2023-03-01T00:11:43.354Z,9.10
2023-03-01T00:14:11.879Z,9.95
2023-03-01T00:16:40.881Z,8.90
2023-03-01T00:19:09.566Z,9.52
2023-03-01T00:21:38.896Z,8.63
2023-03-01T00:24:07.575Z,8.23
2023-03-01T00:26:35.906Z,9.57
2023-03-01T00:29:04.160Z,7.75
2023-03-01T00:31:35.305Z,11.65
2023-03-01T00:34:04.178Z,9.25
2023-03-01T00:36:33.485Z,6.43
2023-03-01T00:39:04.168Z,9.45
2023-03-01T00:41:32.403Z,10.98
2023-03-01T00:44:00.586Z,10.23
2023-03-01T00:46:29.181Z,5.82
2023-03-01T00:48:58.025Z,6.30
2023-03-01T00:51:30.004Z,11.35
2023-03-01T00:53:59.068Z,12.30
2023-03-01T00:56:28.999Z,5.72
2023-03-01T00:58:57.315Z,12.43
2023-03-01T01:01:28.529Z,7.97
2023-03-01T01:03:57.561Z,7.75
2023-03-01T01:06:26.408Z,11.88
2023-03-01T01:08:55.298Z,6.88
2023-03-01T01:11:24.370Z,15.67
2023-03-01T01:13:54.232Z,8.40
2023-03-01T01:16:22.947Z,11.80
2023-03-01T01:18:51.412Z,8.50
2023-03-01T01:21:20.652Z,11.55
2023-03-01T01:26:23.444Z,13.75
2023-03-01T01:28:56.014Z,9.45
2023-03-01T01:31:25.285Z,11.32
2023-03-01T01:33:59.512Z,8.52
2023-03-01T01:36:27.496Z,15.07
2023-03-01T01:38:57.762Z,8.95
2023-03-01T01:41:26.808Z,9.15
2023-03-01T01:44:09.934Z,10.45
2023-03-01T01:46:41.014Z,12.10
2023-03-01T01:49:12.187Z,12.77
2023-03-01T01:51:42.669Z,10.57
2023-03-01T01:54:14.549Z,9.52
2023-03-01T01:56:44.399Z,11.27
2023-03-01T01:59:13.261Z,12.38
2023-03-01T02:01:42.617Z,13.15
2023-03-01T02:04:10.798Z,8.73
2023-03-01T02:06:40.225Z,11.55
2023-03-01T02:09:13.528Z,14.10
2023-03-01T02:11:41.602Z,11.57
2023-03-01T02:14:10.332Z,6.60
2023-03-01T02:16:38.624Z,10.73
2023-03-01T02:19:09.105Z,10.65
2023-03-01T02:21:40.562Z,8.88
2023-03-01T02:24:12.802Z,9.70
2023-03-01T02:26:45.028Z,11.82
2023-03-01T02:29:14.712Z,11.40
2023-03-01T02:31:48.149Z,11.85
2023-03-01T02:34:18.025Z,6.50
2023-03-01T02:36:47.991Z,13.77
2023-03-01T02:39:19.040Z,12.00
2023-03-01T02:41:49.366Z,14.23
2023-03-01T02:44:19.047Z,9.52
2023-03-01T02:46:48.292Z,12.45
2023-03-01T02:49:21.312Z,10.55
2023-03-01T02:51:53.219Z,12.23
2023-03-01T02:54:25.685Z,13.65
2023-03-01T02:56:53.915Z,12.48
2023-03-01T02:59:24.706Z,12.57
2023-03-01T03:01:52.664Z,19.23
2023-03-01T03:04:22.119Z,11.23
2023-03-01T03:06:51.293Z,10.00
2023-03-01T03:11:47.778Z,12.48
2023-03-01T03:14:18.186Z,14.57
2023-03-01T03:16:48.232Z,18.20
2023-03-01T03:19:17.687Z,14.90
2023-03-01T03:21:45.733Z,20.95
2023-03-01T03:24:14.410Z,11.95
2023-03-01T03:26:42.686Z,14.25
2023-03-01T03:29:10.893Z,18.27
2023-03-01T03:31:38.916Z,17.85
2023-03-01T03:34:08.559Z,19.48
2023-03-01T03:36:36.798Z,19.77
2023-03-01T03:39:06.141Z,22.40
2023-03-01T03:41:36.482Z,18.50
2023-03-01T03:44:05.000Z,19.02
2023-03-01T03:46:33.095Z,16.67
2023-03-01T03:49:01.439Z,21.50
2023-03-01T03:51:30.924Z,16.83
2023-03-01T03:53:59.092Z,20.45
2023-03-01T03:56:28.708Z,13.82
2023-03-01T03:58:57.243Z,22.90
2023-03-01T04:01:25.366Z,21.70
2023-03-01T04:03:55.594Z,18.83
2023-03-01T04:06:23.810Z,19.23
2023-03-01T04:08:59.438Z,23.67
2023-03-01T04:11:30.221Z,24.85
2023-03-01T04:13:59.582Z,25.58
2023-03-01T04:16:27.878Z,23.20
2023-03-01T04:18:56.418Z,25.63
2023-03-01T04:21:24.626Z,25.98
2023-03-01T04:23:54.461Z,28.47
2023-03-01T04:26:22.937Z,24.10
2023-03-01T04:28:51.659Z,22.23
2023-03-01T04:31:22.661Z,14.98
2023-03-01T04:33:52.550Z,29.80
2023-03-01T04:38:49.303Z,21.05
2023-03-01T04:41:19.414Z,20.63
2023-03-01T04:43:47.641Z,22.60
2023-03-01T04:46:17.236Z,24.65
2023-03-01T04:48:45.975Z,18.27
2023-03-01T04:51:15.232Z,21.27
2023-03-01T04:53:44.139Z,23.75
2023-03-01T04:56:12.558Z,26.48
2023-03-01T04:58:42.212Z,20.52
2023-03-01T05:03:45.324Z,27.55
2023-03-01T05:06:13.864Z,28.30
2023-03-01T05:08:42.638Z,29.60
2023-03-01T05:11:11.461Z,23.47
2023-03-01T05:13:40.134Z,28.48
2023-03-01T05:16:12.924Z,30.63
2023-03-01T05:18:42.074Z,19.45
2023-03-01T05:21:11.665Z,23.77
2023-03-01T05:23:40.353Z,21.52
2023-03-01T05:26:16.053Z,19.13
2023-03-01T05:28:51.025Z,26.52
2023-03-01T05:31:20.426Z,26.88
2023-03-01T05:33:48.622Z,32.25
2023-03-01T05:36:16.824Z,28.52
2023-03-01T05:38:45.142Z,26.60
2023-03-01T05:41:16.233Z,23.02
2023-03-01T05:43:46.043Z,24.02
2023-03-01T05:46:16.369Z,29.35
2023-03-01T05:48:46.138Z,28.05
2023-03-01T05:53:42.712Z,28.15
2023-03-01T05:56:10.615Z,22.88
2023-03-01T05:58:39.706Z,26.98
2023-03-01T06:01:07.744Z,27.80
2023-03-01T06:03:38.782Z,20.35
2023-03-01T06:06:08.622Z,30.98
2023-03-01T06:08:36.933Z,31.40
2023-03-01T06:11:04.889Z,27.20
2023-03-01T06:13:33.291Z,25.75
2023-03-01T06:16:01.241Z,29.02
2023-03-01T06:18:29.472Z,26.85
2023-03-01T06:20:57.967Z,20.02
2023-03-01T06:23:27.712Z,28.58
2023-03-01T06:28:23.941Z,15.13
2023-03-01T06:30:52.822Z,23.85
2023-03-01T06:33:21.490Z,25.30
2023-03-01T06:35:49.499Z,28.73
2023-03-01T06:38:19.928Z,25.55
2023-03-01T06:40:53.715Z,22.52
2023-03-01T06:43:22.655Z,24.65
2023-03-01T06:45:50.582Z,19.92
2023-03-01T06:48:18.777Z,27.02
2023-03-01T06:50:46.955Z,21.20
2023-03-01T06:53:15.235Z,22.50
2023-03-01T06:55:43.168Z,24.05
2023-03-01T06:58:13.123Z,29.60
2023-03-01T07:00:42.234Z,25.33
2023-03-01T07:03:11.210Z,25.60
2023-03-01T07:08:07.838Z,18.75
2023-03-01T07:10:35.796Z,25.95
2023-03-01T07:13:04.874Z,22.48
2023-03-01T07:15:34.504Z,14.77
2023-03-01T07:18:02.846Z,24.70
2023-03-01T07:20:30.873Z,23.13
2023-03-01T07:22:59.771Z,22.10
2023-03-01T07:25:27.675Z,21.10
2023-03-01T07:27:56.285Z,24.63
2023-03-01T07:30:26.935Z,20.20
2023-03-01T07:32:56.996Z,22.55
2023-03-01T07:35:25.656Z,20.50
2023-03-01T07:37:54.295Z,29.60
2023-03-01T07:40:22.207Z,18.27
2023-03-01T07:42:50.399Z,21.35
2023-03-01T07:45:18.373Z,22.63
2023-03-01T07:47:46.566Z,21.17
2023-03-01T07:50:16.486Z,23.67
2023-03-01T07:52:47.037Z,21.20
2023-03-01T07:55:15.085Z,17.25
2023-03-01T07:57:43.610Z,23.60
2023-03-01T08:00:12.805Z,19.83
2023-03-01T08:02:43.454Z,19.80
2023-03-01T08:05:12.195Z,19.77
2023-03-01T08:07:41.901Z,23.15
2023-03-01T08:12:37.876Z,21.73
2023-03-01T08:15:06.183Z,17.50
2023-03-01T08:17:34.380Z,19.48
2023-03-01T08:20:04.375Z,17.30
2023-03-01T08:22:32.949Z,19.55
2023-03-01T08:25:02.503Z,17.13
2023-03-01T08:27:30.695Z,18.13
2023-03-01T08:29:59.154Z,16.63
2023-03-01T08:32:27.508Z,14.82
2023-03-01T08:34:55.505Z,17.52
2023-03-01T08:37:24.109Z,16.30
2023-03-01T08:39:52.219Z,16.33
2023-03-01T08:42:21.912Z,15.50
2023-03-01T08:44:49.835Z,17.45
2023-03-01T08:47:18.081Z,18.50
2023-03-01T08:49:46.005Z,15.88
2023-03-01T08:52:14.192Z,17.10
2023-03-01T08:54:42.176Z,17.17
2023-03-01T08:57:10.730Z,17.80
2023-03-01T08:59:40.088Z,17.65
2023-03-01T09:02:12.610Z,15.88
2023-03-01T09:04:40.809Z,17.48
2023-03-01T09:07:09.177Z,15.57
2023-03-01T09:09:37.674Z,17.02
2023-03-01T09:12:06.008Z,15.50
2023-03-01T09:14:33.998Z,16.50
2023-03-01T09:17:04.061Z,14.52
2023-03-01T09:19:32.689Z,13.85
2023-03-01T09:22:01.192Z,14.52
2023-03-01T09:24:29.090Z,15.30
2023-03-01T09:26:58.377Z,18.17
2023-03-01T09:29:27.040Z,17.00
2023-03-01T09:31:56.668Z,14.02
2023-03-01T09:36:54.678Z,15.23
2023-03-01T09:39:22.690Z,13.55
2023-03-01T09:41:52.572Z,11.63
2023-03-01T09:46:48.822Z,18.67
2023-03-01T09:49:20.978Z,17.08
2023-03-01T09:51:56.474Z,17.15
2023-03-01T09:54:25.825Z,14.93
2023-03-01T09:57:03.741Z,16.50
2023-03-01T09:59:35.458Z,15.80
2023-03-01T10:02:07.927Z,16.20
2023-03-01T10:04:43.279Z,15.95
2023-03-01T10:07:20.170Z,16.75
2023-03-01T10:09:49.605Z,18.33
2023-03-01T10:12:21.707Z,14.18
2023-03-01T10:14:53.317Z,17.70
2023-03-01T10:17:27.282Z,17.40
2023-03-01T10:19:57.448Z,21.85
2023-03-01T10:22:30.421Z,15.18
2023-03-01T10:25:01.868Z,16.30
2023-03-01T10:27:37.652Z,16.25
2023-03-01T10:30:13.200Z,17.00
2023-03-01T10:32:43.214Z,17.60
2023-03-01T10:35:18.432Z,17.45
2023-03-01T10:37:59.891Z,19.77
2023-03-01T10:40:29.195Z,17.35
2023-03-01T10:43:00.480Z,13.73
2023-03-01T10:45:38.391Z,25.17
2023-03-01T10:48:08.676Z,15.77
2023-03-01T10:50:39.223Z,14.68
2023-03-01T10:53:19.465Z,19.77
2023-03-01T10:55:48.771Z,19.98
2023-03-01T10:58:22.461Z,15.57
2023-03-01T11:00:52.281Z,18.80
2023-03-01T11:03:23.140Z,15.40
2023-03-01T11:05:59.789Z,14.48
2023-03-01T11:08:41.226Z,15.05
2023-03-01T11:11:16.055Z,17.27
2023-03-01T11:13:53.408Z,13.73
2023-03-01T11:16:26.007Z,14.00
2023-03-01T11:19:02.008Z,13.70
2023-03-01T11:21:32.459Z,13.80
2023-03-01T11:24:02.179Z,16.42
2023-03-01T11:26:33.498Z,19.70
2023-03-01T11:29:04.424Z,21.60
2023-03-01T11:31:33.829Z,16.15
2023-03-01T11:34:05.173Z,13.05
2023-03-01T11:36:47.112Z,23.60
2023-03-01T11:39:20.612Z,19.50
2023-03-01T11:41:55.167Z,12.73
2023-03-01T11:44:24.949Z,18.23
2023-03-01T11:47:16.562Z,22.38
2023-03-01T11:49:59.819Z,20.60
2023-03-01T11:52:35.146Z,19.95
2023-03-01T11:55:15.531Z,20.50
2023-03-01T11:57:51.878Z,21.63
2023-03-01T12:00:27.602Z,22.05
2023-03-01T12:03:15.924Z,19.55
2023-03-01T12:05:50.908Z,15.77
2023-03-01T12:08:23.120Z,21.48
2023-03-01T12:10:57.884Z,20.00
2023-03-01T12:13:40.943Z,23.58
2023-03-01T12:16:25.884Z,19.88
2023-03-01T12:19:09.774Z,20.17
2023-03-01T12:21:45.002Z,23.65
2023-03-01T12:24:22.562Z,22.08
2023-03-01T12:26:56.740Z,21.45
2023-03-01T12:29:27.499Z,24.35
2023-03-01T12:32:13.695Z,23.98
2023-03-01T12:34:53.618Z,18.60
2023-03-01T12:37:26.827Z,23.08
2023-03-01T12:40:02.839Z,21.13
2023-03-01T12:42:34.084Z,19.92
2023-03-01T12:45:09.306Z,18.10
2023-03-01T12:47:54.866Z,16.92
2023-03-01T12:50:25.704Z,14.70
2023-03-01T12:52:55.686Z,24.20
2023-03-01T12:55:28.355Z,17.17
2023-03-01T12:58:00.752Z,18.60
2023-03-01T13:00:29.922Z,16.73
2023-03-01T13:05:31.542Z,18.27
2023-03-01T13:08:03.713Z,17.10
2023-03-01T13:10:35.368Z,19.13
2023-03-01T13:13:05.626Z,19.27
2023-03-01T13:15:35.317Z,18.42
2023-03-01T13:18:05.369Z,17.90
2023-03-01T13:20:37.263Z,15.32
2023-03-01T13:23:08.276Z,15.40
2023-03-01T13:25:42.515Z,14.00
2023-03-01T13:28:28.892Z,19.92
2023-03-01T13:30:56.842Z,14.57
2023-03-01T13:33:44.260Z,24.85
2023-03-01T13:36:37.068Z,15.43
2023-03-01T13:39:06.475Z,24.70
2023-03-01T13:41:53.451Z,21.05
2023-03-01T13:44:23.785Z,33.05
2023-03-01T13:46:52.311Z,16.90
2023-03-01T13:49:21.849Z,20.88
2023-03-01T13:51:52.045Z,15.23
2023-03-01T13:54:24.931Z,19.20
2023-03-01T13:56:52.863Z,21.60
2023-03-01T13:59:22.477Z,15.50
2023-03-01T14:04:21.810Z,21.30
2023-03-01T14:06:51.380Z,19.88
2023-03-01T14:09:20.736Z,22.83
2023-03-01T14:11:57.847Z,18.27
2023-03-01T14:14:37.955Z,14.07
2023-03-01T14:17:12.329Z,19.40
2023-03-01T14:19:42.122Z,22.38
2023-03-01T14:22:17.271Z,19.95
2023-03-01T14:24:48.588Z,18.17
2023-03-01T14:27:16.927Z,15.63
2023-03-01T14:29:45.827Z,21.02
2023-03-01T14:32:15.025Z,18.33
2023-03-01T14:37:20.796Z,17.83
2023-03-01T14:39:49.209Z,21.10
2023-03-01T14:42:17.457Z,18.08
2023-03-01T14:44:47.294Z,14.10
2023-03-01T14:47:16.989Z,16.83
2023-03-01T14:49:45.487Z,16.48
2023-03-01T14:52:22.751Z,17.50
2023-03-01T14:54:52.060Z,14.02
2023-03-01T14:57:21.870Z,15.43
2023-03-01T14:59:51.747Z,16.95
2023-03-01T15:02:20.725Z,17.58
2023-03-01T15:04:50.417Z,18.70
2023-03-01T15:09:47.993Z,25.58
2023-03-01T15:12:42.777Z,20.13
2023-03-01T15:15:25.436Z,25.10
2023-03-01T15:17:56.225Z,24.45
2023-03-01T15:20:26.868Z,23.77
2023-03-01T15:22:55.187Z,19.27
2023-03-01T15:25:26.572Z,22.63
2023-03-01T15:27:55.612Z,24.98
2023-03-01T15:30:25.604Z,22.38
2023-03-01T15:33:08.296Z,28.48
2023-03-01T15:35:42.426Z,29.98
2023-03-01T15:38:26.132Z,24.35
2023-03-01T15:40:56.205Z,27.83
2023-03-01T15:43:40.710Z,24.20
2023-03-01T15:46:16.126Z,27.67
2023-03-01T15:48:46.381Z,28.98
2023-03-01T15:51:16.078Z,23.88
2023-03-01T15:56:23.774Z,25.13
2023-03-01T16:01:19.728Z,31.58
2023-03-01T16:03:47.825Z,27.38
2023-03-01T16:06:16.308Z,31.00
2023-03-01T16:08:44.192Z,32.83
2023-03-01T16:11:16.342Z,31.17
2023-03-01T16:13:46.322Z,32.85
2023-03-01T16:16:17.346Z,35.85
2023-03-01T16:18:46.766Z,28.40
2023-03-01T16:21:21.187Z,29.08
2023-03-01T16:23:49.193Z,32.85
2023-03-01T16:26:19.631Z,39.25
2023-03-01T16:28:49.857Z,36.38
2023-03-01T16:31:20.826Z,36.10
2023-03-01T16:33:50.972Z,32.72
2023-03-01T16:36:20.258Z,34.22
2023-03-01T16:38:49.462Z,34.38
2023-03-01T16:41:19.022Z,36.58
2023-03-01T16:43:48.903Z,38.35
2023-03-01T16:46:19.881Z,37.85
2023-03-01T16:48:48.659Z,35.88
2023-03-01T16:51:18.217Z,35.45
2023-03-01T16:53:47.504Z,36.55
2023-03-01T16:56:16.573Z,33.33
2023-03-01T16:58:44.890Z,41.90
2023-03-01T17:01:14.756Z,35.40
2023-03-01T17:03:45.116Z,34.90
2023-03-01T17:06:15.301Z,35.17
2023-03-01T17:08:43.839Z,39.45
2023-03-01T17:11:13.595Z,38.17
2023-03-01T17:16:10.797Z,35.13
2023-03-01T17:18:39.059Z,36.53
2023-03-01T17:21:11.405Z,46.63
2023-03-01T17:23:41.400Z,61.40
2023-03-01T17:26:09.857Z,63.22
2023-03-01T17:28:38.856Z,83.15
2023-03-01T17:31:08.037Z,93.05
2023-03-01T17:33:36.130Z,89.07
2023-03-01T17:36:05.671Z,81.57
2023-03-01T17:38:36.616Z,70.13
2023-03-01T17:41:05.344Z,60.30
2023-03-01T17:43:34.466Z,69.63
2023-03-01T17:46:03.248Z,76.20
2023-03-01T17:48:31.982Z,66.78
2023-03-01T17:51:00.363Z,59.55
2023-03-01T17:53:28.747Z,53.58
2023-03-01T17:56:02.845Z,48.65
2023-03-01T17:58:33.314Z,47.70
2023-03-01T18:01:09.052Z,52.25
2023-03-01T18:03:37.884Z,44.00
2023-03-01T18:06:12.118Z,44.10
2023-03-01T18:08:40.372Z,40.75
2023-03-01T18:11:13.869Z,38.10
2023-03-01T18:13:43.283Z,43.22
2023-03-01T18:16:15.164Z,47.75
2023-03-01T18:18:46.294Z,47.08
2023-03-01T18:21:15.825Z,46.25
2023-03-01T18:23:46.664Z,39.58
2023-03-01T18:26:17.784Z,46.22
2023-03-01T18:28:47.606Z,56.00
2023-03-01T18:31:18.599Z,46.28
2023-03-01T18:33:49.762Z,47.60
2023-03-01T18:36:20.800Z,40.47
2023-03-01T18:38:49.911Z,27.33
2023-03-01T18:41:19.666Z,26.35
2023-03-01T18:46:16.538Z,17.02
2023-03-01T18:48:46.809Z,11.60
2023-03-01T18:51:19.491Z,14.50
2023-03-01T18:53:49.900Z,7.93
2023-03-01T18:56:24.392Z,8.63
2023-03-01T18:58:56.247Z,8.95
2023-03-01T19:01:39.599Z,9.32
2023-03-01T19:04:09.385Z,8.30
2023-03-01T19:06:39.477Z,11.20
2023-03-01T19:09:11.446Z,10.48
2023-03-01T19:11:42.387Z,13.63
2023-03-01T19:14:12.467Z,9.63
2023-03-01T19:16:46.018Z,10.07
2023-03-01T19:19:14.341Z,9.63
2023-03-01T19:21:56.092Z,8.27
2023-03-01T19:24:32.955Z,11.18
2023-03-01T19:27:20.775Z,10.27
2023-03-01T19:29:53.533Z,14.00
2023-03-01T19:32:23.327Z,10.13
2023-03-01T19:34:52.899Z,10.70
2023-03-01T19:37:23.934Z,8.27
2023-03-01T19:39:52.640Z,10.38
2023-03-01T19:42:26.689Z,7.28
2023-03-01T19:44:56.067Z,6.05
2023-03-01T19:47:25.006Z,7.80
2023-03-01T19:49:54.389Z,11.57
2023-03-01T19:52:24.489Z,14.07
2023-03-01T19:54:55.839Z,9.45
2023-03-01T19:57:33.469Z,12.80
2023-03-01T20:00:02.636Z,18.23
2023-03-01T20:02:31.064Z,14.63
2023-03-01T20:05:08.951Z,11.45
2023-03-01T20:07:37.166Z,16.15
2023-03-01T20:10:06.653Z,13.05
2023-03-01T20:15:07.546Z,10.23
2023-03-01T20:17:36.175Z,10.40
2023-03-01T20:20:13.926Z,8.63
2023-03-01T20:22:42.628Z,12.23
2023-03-01T20:25:13.236Z,12.18
2023-03-01T20:27:50.726Z,9.93
2023-03-01T20:30:25.640Z,9.98
2023-03-01T20:32:54.887Z,6.85
2023-03-01T20:37:54.418Z,6.80
2023-03-01T20:40:27.012Z,9.48
2023-03-01T20:42:55.594Z,10.07
2023-03-01T20:45:33.419Z,9.18
2023-03-01T20:48:02.861Z,10.00
2023-03-01T20:50:34.058Z,11.52
2023-03-01T20:53:04.518Z,6.30
2023-03-01T20:55:37.114Z,7.35
2023-03-01T20:58:10.350Z,10.23
2023-03-01T21:00:40.401Z,6.18
2023-03-01T21:03:08.724Z,8.48
2023-03-01T21:05:37.335Z,4.80
2023-03-01T21:08:05.852Z,9.65
2023-03-01T21:10:40.035Z,7.32
2023-03-01T21:13:08.135Z,7.05
2023-03-01T21:15:36.996Z,5.40
2023-03-01T21:18:10.061Z,5.88
2023-03-01T21:20:42.974Z,8.68
2023-03-01T21:23:16.153Z,5.28
2023-03-01T21:25:45.946Z,6.75
2023-03-01T21:28:15.988Z,7.78
2023-03-01T21:30:47.836Z,9.30
2023-03-01T21:33:17.502Z,13.45
2023-03-01T21:35:45.926Z,10.02
2023-03-01T21:38:14.744Z,8.20
2023-03-01T21:40:43.191Z,8.18
2023-03-01T21:43:11.585Z,8.02
2023-03-01T21:45:40.505Z,7.10
2023-03-01T21:48:08.708Z,9.98
2023-03-01T21:50:38.422Z,10.20
2023-03-01T21:55:38.413Z,5.55
2023-03-01T21:58:06.383Z,8.05
2023-03-01T22:03:08.056Z,9.13
2023-03-01T22:05:38.350Z,11.55
2023-03-01T22:08:07.474Z,19.60
2023-03-01T22:10:42.572Z,16.88
2023-03-01T22:13:10.874Z,15.48
2023-03-01T22:15:41.186Z,18.63
2023-03-01T22:18:09.639Z,16.45
2023-03-01T22:20:39.704Z,15.02
2023-03-01T22:23:08.251Z,9.68
2023-03-01T22:25:41.841Z,11.70
2023-03-01T22:28:10.587Z,15.52
2023-03-01T22:30:38.868Z,15.18
2023-03-01T22:33:06.837Z,14.40
2023-03-01T22:35:35.386Z,18.75
2023-03-01T22:38:05.178Z,22.60
2023-03-01T22:40:33.701Z,22.58
2023-03-01T22:43:01.634Z,19.15
2023-03-01T22:45:32.316Z,17.23
2023-03-01T22:48:01.265Z,27.70
2023-03-01T22:50:29.664Z,21.48
2023-03-01T22:52:57.747Z,20.00
2023-03-01T22:55:28.365Z,18.88
2023-03-01T22:57:56.238Z,25.90
2023-03-01T23:00:24.888Z,19.33
2023-03-01T23:02:52.968Z,20.45
2023-03-01T23:05:23.338Z,18.35
2023-03-01T23:07:51.385Z,28.33
2023-03-01T23:10:19.780Z,33.63
2023-03-01T23:12:49.050Z,24.55
2023-03-01T23:15:17.305Z,32.50
2023-03-01T23:17:45.198Z,27.38
2023-03-01T23:20:14.609Z,23.00
2023-03-01T23:22:42.711Z,27.83
2023-03-01T23:25:13.171Z,28.50
2023-03-01T23:27:41.165Z,24.80
2023-03-01T23:30:11.635Z,22.95
2023-03-01T23:32:40.780Z,23.20
2023-03-01T23:35:10.670Z,20.15
2023-03-01T23:37:38.800Z,24.58
2023-03-01T23:40:08.158Z,21.77
2023-03-01T23:42:36.172Z,21.35
2023-03-01T23:45:07.824Z,26.95
2023-03-01T23:47:37.502Z,20.08
2023-03-01T23:50:06.457Z,22.58
2023-03-01T23:52:37.735Z,16.05
2023-03-01T23:55:08.445Z,21.50
2023-03-01T23:57:36.998Z,21.35
